Wetterdaten: Woche 10.01.05 - 16.01.05 (KW2)
Datum Zeit Temperatur Luftfeuchte Luftdruck Niederschlag Wind Richtung Sonne Solar Taupunkt Windchill
10.01.2005 00:00 2.0 C 98 % 1031.8 hPa 0.0 l/m 1.0 km/h (0 Bft) O-SO 0.00 h 0 W/m 1.6 C 1.8 C
10.01.2005 01:00 1.1 C 99 % 1031.4 hPa 0.0 l/m 2.2 km/h (1 Bft) O-SO 0.00 h 0 W/m 1.0 C 0.6 C
10.01.2005 02:00 0.7 C 100 % 1031.3 hPa 0.0 l/m 0.8 km/h (0 Bft) O-SO 0.00 h 0 W/m 0.7 C 0.5 C
10.01.2005 03:00 0.3 C 100 % 1031.2 hPa 0.0 l/m 0.6 km/h (0 Bft) O-SO 0.00 h 0 W/m 0.3 C 0.3 C
10.01.2005 04:00 0.2 C 100 % 1031.0 hPa 0.0 l/m 0.9 km/h (0 Bft) O-SO 0.00 h 0 W/m 0.3 C 0.0 C
10.01.2005 05:00 0.4 C 100 % 1031.0 hPa 0.0 l/m 0.0 km/h (0 Bft) N 0.00 h 0 W/m 0.4 C 0.4 C
10.01.2005 06:00 0.8 C 100 % 1031.0 hPa 0.0 l/m 0.0 km/h (0 Bft) N 0.00 h 0 W/m 0.8 C 0.8 C
10.01.2005 07:00 1.0 C 100 % 1030.9 hPa 0.0 l/m 0.8 km/h (0 Bft) O-SO 0.00 h 0 W/m 1.0 C 1.0 C
10.01.2005 08:00 1.0 C 100 % 1030.9 hPa 0.0 l/m 0.3 km/h (0 Bft) O-SO 0.00 h 12 W/m 1.0 C 1.0 C
10.01.2005 09:00 1.3 C 100 % 1030.9 hPa 0.0 l/m 3.7 km/h (1 Bft) O-SO 0.00 h 53 W/m 1.3 C 0.5 C
10.01.2005 10:00 1.6 C 100 % 1030.8 hPa 0.0 l/m 0.3 km/h (0 Bft) O-SO 0.00 h 100 W/m 1.6 C 1.6 C
10.01.2005 11:00 2.2 C 100 % 1030.7 hPa 0.0 l/m 0.1 km/h (0 Bft) N 0.00 h 159 W/m 2.2 C 2.2 C
10.01.2005 12:00 3.1 C 99 % 1029.6 hPa 0.0 l/m 0.4 km/h (0 Bft) W-NW 0.70 h 284 W/m 3.0 C 3.1 C
10.01.2005 13:00 4.6 C 93 % 1029.1 hPa 0.0 l/m 0.2 km/h (0 Bft) W-NW 1.00 h 382 W/m 3.6 C 4.6 C
10.01.2005 14:00 6.2 C 86 % 1028.1 hPa 0.0 l/m 0.0 km/h (0 Bft) N 1.00 h 326 W/m 4.0 C 6.2 C
10.01.2005 15:00 7.1 C 78 % 1028.0 hPa 0.0 l/m 0.0 km/h (0 Bft) N 1.00 h 216 W/m 3.5 C 7.1 C
10.01.2005 16:00 5.7 C 83 % 1028.2 hPa 0.0 l/m 0.0 km/h (0 Bft) N 0.70 h 67 W/m 3.1 C 5.7 C
10.01.2005 17:00 4.0 C 90 % 1028.4 hPa 0.0 l/m 0.8 km/h (0 Bft) O 0.00 h 0 W/m 2.5 C 3.9 C
10.01.2005 18:00 2.5 C 93 % 1029.4 hPa 0.0 l/m 0.0 km/h (0 Bft) N 0.00 h 0 W/m 1.5 C 2.5 C
10.01.2005 19:00 1.2 C 95 % 1029.8 hPa 0.0 l/m 2.0 km/h (1 Bft) O 0.00 h 0 W/m 0.6 C 0.7 C
10.01.2005 20:00 0.6 C 97 % 1030.4 hPa 0.0 l/m 2.7 km/h (1 Bft) O 0.00 h 0 W/m 0.2 C -0.2 C
10.01.2005 21:00 0.8 C 98 % 1031.0 hPa 0.0 l/m 2.0 km/h (1 Bft) SO 0.00 h 0 W/m 0.4 C 0.3 C
10.01.2005 22:00 0.5 C 98 % 1031.0 hPa 0.0 l/m 0.0 km/h (0 Bft) N 0.00 h 0 W/m 0.2 C 0.5 C
10.01.2005 23:00 -0.3 C 98 % 1031.5 hPa 0.0 l/m 1.3 km/h (1 Bft) SO 0.00 h 0 W/m -0.5 C -0.7 C
11.01.2005 00:00 -1.1 C 98 % 1032.3 hPa 0.0 l/m 0.0 km/h (0 Bft) N 0.00 h 0 W/m -1.3 C -1.1 C
11.01.2005 01:00 -1.5 C 99 % 1032.3 hPa 0.0 l/m 0.0 km/h (0 Bft) N 0.00 h 0 W/m -1.7 C -1.5 C
11.01.2005 02:00 -1.7 C 99 % 1032.4 hPa 0.0 l/m 0.2 km/h (0 Bft) O-SO 0.00 h 0 W/m -1.8 C -1.8 C
11.01.2005 03:00 -2.3 C 99 % 1032.5 hPa 0.0 l/m 0.0 km/h (0 Bft) N 0.00 h 0 W/m -2.4 C -2.3 C
11.01.2005 04:00 -2.3 C 98 % 1032.5 hPa 0.0 l/m 0.0 km/h (0 Bft) N 0.00 h 0 W/m -2.5 C -2.3 C
11.01.2005 05:00 -1.8 C 99 % 1033.4 hPa 0.0 l/m 0.0 km/h (0 Bft) N 0.00 h 0 W/m -1.9 C -1.8 C
11.01.2005 06:00 -1.9 C 99 % 1033.4 hPa 0.0 l/m 1.5 km/h (1 Bft) O 0.00 h 0 W/m -2.0 C -2.4 C
11.01.2005 07:00 -2.4 C 98 % 1033.5 hPa 0.0 l/m 0.3 km/h (0 Bft) O 0.00 h 0 W/m -2.6 C -2.5 C
11.01.2005 08:00 -1.9 C 99 % 1033.4 hPa 0.0 l/m 2.6 km/h (1 Bft) O-SO 0.23 h 32 W/m -2.0 C -2.7 C
11.01.2005 09:00 -0.9 C 99 % 1033.3 hPa 0.0 l/m 0.4 km/h (0 Bft) O 1.00 h 139 W/m -1.0 C -1.0 C
11.01.2005 10:00 0.6 C 100 % 1033.1 hPa 0.0 l/m 1.7 km/h (1 Bft) O 0.85 h 232 W/m 0.6 C 0.4 C
11.01.2005 11:00 3.8 C 98 % 1032.7 hPa 0.0 l/m 3.4 km/h (1 Bft) O 0.93 h 299 W/m 3.5 C 3.0 C
11.01.2005 12:00 5.9 C 75 % 1031.5 hPa 0.0 l/m 3.1 km/h (1 Bft) SO 0.80 h 305 W/m 1.9 C 5.4 C
11.01.2005 13:00 6.9 C 72 % 1030.2 hPa 0.0 l/m 2.0 km/h (1 Bft) SO 0.87 h 331 W/m 2.3 C 6.7 C
11.01.2005 14:00 7.8 C 68 % 1029.4 hPa 0.0 l/m 0.5 km/h (0 Bft) O-SO 0.98 h 310 W/m 2.2 C 7.7 C
11.01.2005 15:00 7.5 C 69 % 1028.9 hPa 0.0 l/m 0.1 km/h (0 Bft) N 1.02 h 203 W/m 2.2 C 7.5 C
11.01.2005 16:00 6.4 C 72 % 1029.1 hPa 0.0 l/m 1.4 km/h (1 Bft) SO 0.77 h 63 W/m 1.7 C 6.2 C
11.01.2005 17:00 5.0 C 75 % 1029.3 hPa 0.0 l/m 5.1 km/h (1 Bft) O-SO 0.00 h 0 W/m 0.8 C 3.8 C
11.01.2005 18:00 2.8 C 84 % 1030.7 hPa 0.0 l/m 2.7 km/h (1 Bft) O-SO 0.00 h 0 W/m 0.3 C 2.1 C
11.01.2005 19:00 1.1 C 91 % 1030.9 hPa 0.0 l/m 0.0 km/h (0 Bft) N 0.00 h 0 W/m -0.1 C 1.1 C
11.01.2005 20:00 0.3 C 94 % 1031.0 hPa 0.0 l/m 0.2 km/h (0 Bft) O-SO 0.00 h 0 W/m -0.5 C 0.3 C
11.01.2005 21:00 -0.1 C 96 % 1031.1 hPa 0.0 l/m 0.0 km/h (0 Bft) N 0.00 h 0 W/m -0.7 C -0.1 C
11.01.2005 22:00 -0.5 C 97 % 1031.2 hPa 0.0 l/m 0.0 km/h (0 Bft) N 0.00 h 0 W/m -0.9 C -0.5 C
11.01.2005 23:00 -1.1 C 98 % 1031.2 hPa 0.0 l/m 1.7 km/h (1 Bft) O 0.00 h 0 W/m -1.5 C -1.7 C
12.01.2005 00:00 -1.5 C 98 % 1031.3 hPa 0.0 l/m 0.1 km/h (0 Bft) N 0.00 h 0 W/m -1.8 C -1.5 C
12.01.2005 01:00 -2.1 C 97 % 1031.4 hPa 0.0 l/m 0.7 km/h (0 Bft) O 0.00 h 0 W/m -2.4 C -2.3 C
12.01.2005 02:00 -2.2 C 97 % 1031.4 hPa 0.0 l/m 0.1 km/h (0 Bft) N 0.00 h 0 W/m -2.6 C -2.2 C
12.01.2005 03:00 -2.2 C 98 % 1031.3 hPa 0.0 l/m 0.6 km/h (0 Bft) O 0.00 h 0 W/m -2.5 C -2.4 C
12.01.2005 04:00 -2.0 C 99 % 1030.3 hPa 0.0 l/m 0.9 km/h (0 Bft) O 0.00 h 0 W/m -2.2 C -2.3 C
12.01.2005 05:00 -1.0 C 100 % 1030.2 hPa 0.0 l/m 1.4 km/h (1 Bft) O-SO 0.00 h 0 W/m -1.0 C -1.3 C
12.01.2005 06:00 -0.6 C 99 % 1030.1 hPa 0.0 l/m 1.1 km/h (1 Bft) O-SO 0.00 h 0 W/m -0.6 C -0.9 C
12.01.2005 07:00 -0.5 C 99 % 1030.1 hPa 0.0 l/m 0.1 km/h (0 Bft) O 0.00 h 0 W/m -0.6 C -0.5 C
12.01.2005 08:00 -0.9 C 100 % 1030.2 hPa 0.0 l/m 0.0 km/h (0 Bft) N 0.33 h 36 W/m -0.9 C -0.9 C
12.01.2005 09:00 0.4 C 99 % 1030.0 hPa 0.0 l/m 0.0 km/h (0 Bft) N 0.90 h 161 W/m 0.2 C 0.4 C
12.01.2005 10:00 2.3 C 88 % 1029.7 hPa 0.0 l/m 0.4 km/h (0 Bft) O-NO 0.80 h 253 W/m 0.5 C 2.3 C
12.01.2005 11:00 4.5 C 67 % 1028.7 hPa 0.0 l/m 3.5 km/h (1 Bft) S-SO 0.83 h 259 W/m -1.0 C 3.8 C
12.01.2005 12:00 6.2 C 60 % 1028.0 hPa 0.0 l/m 5.3 km/h (1 Bft) O-SO 0.13 h 212 W/m -0.9 C 5.3 C
12.01.2005 13:00 7.4 C 58 % 1026.9 hPa 0.0 l/m 4.1 km/h (1 Bft) SO 0.47 h 256 W/m -0.4 C 6.8 C
12.01.2005 14:00 7.5 C 58 % 1026.9 hPa 0.0 l/m 2.6 km/h (1 Bft) S-SO 0.00 h 132 W/m -0.3 C 7.1 C
12.01.2005 15:00 7.1 C 59 % 1026.8 hPa 0.0 l/m 5.2 km/h (1 Bft) O-SO 0.00 h 51 W/m -0.3 C 6.3 C
12.01.2005 16:00 6.8 C 60 % 1026.7 hPa 0.0 l/m 4.7 km/h (1 Bft) SO 0.00 h 23 W/m -0.5 C 6.0 C
12.01.2005 17:00 6.4 C 61 % 1027.0 hPa 0.0 l/m 3.1 km/h (1 Bft) SO 0.00 h 0 W/m -0.5 C 6.1 C
12.01.2005 18:00 6.1 C 64 % 1027.1 hPa 0.0 l/m 1.0 km/h (0 Bft) SO 0.00 h 0 W/m -0.3 C 6.1 C
12.01.2005 19:00 4.9 C 78 % 1027.7 hPa 0.3 l/m 11.6 km/h (2 Bft) SO 0.00 h 0 W/m 1.4 C 2.3 C
12.01.2005 20:00 4.8 C 82 % 1027.4 hPa 0.0 l/m 7.1 km/h (2 Bft) SO 0.00 h 0 W/m 2.1 C 3.4 C
12.01.2005 21:00 4.7 C 84 % 1027.6 hPa 0.0 l/m 7.5 km/h (2 Bft) SO 0.00 h 0 W/m 2.3 C 3.1 C
12.01.2005 22:00 4.3 C 90 % 1028.3 hPa 1.2 l/m 1.5 km/h (1 Bft) SO 0.00 h 0 W/m 2.8 C 4.0 C
12.01.2005 23:00 4.2 C 95 % 1028.4 hPa 0.6 l/m 7.9 km/h (2 Bft) SO 0.00 h 0 W/m 3.4 C 2.3 C
13.01.2005 00:00 4.3 C 97 % 1028.4 hPa 0.3 l/m 5.7 km/h (1 Bft) S-SO 0.00 h 0 W/m 3.9 C 3.1 C
13.01.2005 01:00 4.5 C 99 % 1028.3 hPa 0.0 l/m 2.8 km/h (1 Bft) SO 0.00 h 0 W/m 4.4 C 3.9 C
13.01.2005 02:00 4.6 C 100 % 1028.3 hPa 0.0 l/m 5.0 km/h (1 Bft) O-SO 0.00 h 0 W/m 4.5 C 3.5 C
13.01.2005 03:00 5.3 C 98 % 1028.2 hPa 0.0 l/m 14.5 km/h (3 Bft) W-NW 0.00 h 0 W/m 5.1 C 2.3 C
13.01.2005 04:00 4.7 C 95 % 1028.3 hPa 0.0 l/m 14.4 km/h (3 Bft) W-NW 0.00 h 0 W/m 4.0 C 1.6 C
13.01.2005 05:00 3.6 C 96 % 1028.6 hPa 0.0 l/m 9.2 km/h (2 Bft) W 0.00 h 0 W/m 3.0 C 1.4 C
13.01.2005 06:00 2.2 C 96 % 1029.7 hPa 0.0 l/m 3.5 km/h (1 Bft) W 0.00 h 0 W/m 1.7 C 1.3 C
13.01.2005 07:00 1.3 C 98 % 1030.1 hPa 0.0 l/m 0.1 km/h (0 Bft) N 0.00 h 0 W/m 1.0 C 1.3 C
13.01.2005 08:00 2.2 C 99 % 1030.8 hPa 0.0 l/m 8.3 km/h (2 Bft) W-NW 0.00 h 14 W/m 2.1 C -0.0 C
13.01.2005 09:00 3.2 C 97 % 1031.4 hPa 0.0 l/m 3.2 km/h (1 Bft) W-NW 0.43 h 121 W/m 2.8 C 2.6 C
13.01.2005 10:00 4.7 C 86 % 1031.4 hPa 0.0 l/m 10.7 km/h (2 Bft) W-NW 0.27 h 156 W/m 2.5 C 2.2 C
13.01.2005 11:00 4.9 C 81 % 1031.4 hPa 0.0 l/m 19.4 km/h (3 Bft) W-NW 0.07 h 136 W/m 1.9 C 1.1 C
13.01.2005 12:00 4.6 C 82 % 1031.4 hPa 0.0 l/m 5.2 km/h (1 Bft) W 0.07 h 142 W/m 1.8 C 3.6 C
13.01.2005 13:00 6.6 C 69 % 1031.2 hPa 0.0 l/m 13.7 km/h (3 Bft) W 0.90 h 390 W/m 1.3 C 4.0 C
13.01.2005 14:00 7.2 C 59 % 1030.6 hPa 0.0 l/m 12.9 km/h (3 Bft) W 1.00 h 352 W/m -0.3 C 4.8 C
13.01.2005 15:00 6.4 C 58 % 1031.1 hPa 0.0 l/m 14.1 km/h (3 Bft) W 1.00 h 231 W/m -1.2 C 3.7 C
13.01.2005 16:00 4.8 C 64 % 1031.4 hPa 0.0 l/m 7.1 km/h (2 Bft) W-NW 0.73 h 69 W/m -1.5 C 3.4 C
13.01.2005 17:00 2.8 C 71 % 1031.7 hPa 0.0 l/m 4.8 km/h (1 Bft) SO 0.00 h 0 W/m -1.9 C 1.6 C
13.01.2005 18:00 2.1 C 75 % 1031.8 hPa 0.0 l/m 6.2 km/h (2 Bft) O-SO 0.00 h 0 W/m -1.9 C 0.3 C
13.01.2005 19:00 1.4 C 80 % 1032.7 hPa 0.0 l/m 5.4 km/h (1 Bft) O-SO 0.00 h 0 W/m -1.7 C -0.2 C
13.01.2005 20:00 0.1 C 87 % 1033.1 hPa 0.0 l/m 0.7 km/h (0 Bft) O-SO 0.00 h 0 W/m -1.9 C -0.0 C
13.01.2005 21:00 -1.2 C 90 % 1033.3 hPa 0.0 l/m 0.1 km/h (0 Bft) O-SO 0.00 h 0 W/m -2.7 C -1.2 C
13.01.2005 22:00 -1.8 C 93 % 1033.4 hPa 0.0 l/m 0.2 km/h (0 Bft) O-SO 0.00 h 0 W/m -2.8 C -1.8 C
13.01.2005 23:00 -2.3 C 95 % 1033.5 hPa 0.0 l/m 0.1 km/h (0 Bft) N 0.00 h 0 W/m -3.0 C -2.3 C
14.01.2005 00:00 -3.1 C 95 % 1033.6 hPa 0.0 l/m 0.0 km/h (0 Bft) N 0.00 h 0 W/m -3.8 C -3.1 C
14.01.2005 01:00 -3.5 C 95 % 1033.7 hPa 0.0 l/m 0.0 km/h (0 Bft) N 0.00 h 0 W/m -4.2 C -3.5 C
14.01.2005 02:00 -3.6 C 94 % 1033.7 hPa 0.0 l/m 0.0 km/h (0 Bft) N 0.00 h 0 W/m -4.4 C -3.6 C
14.01.2005 03:00 -3.1 C 95 % 1033.5 hPa 0.0 l/m 0.0 km/h (0 Bft) N 0.00 h 0 W/m -3.8 C -3.1 C
14.01.2005 04:00 -2.4 C 97 % 1032.6 hPa 0.0 l/m 0.0 km/h (0 Bft) O-SO 0.00 h 0 W/m -2.8 C -2.4 C
14.01.2005 05:00 -3.1 C 98 % 1032.6 hPa 0.0 l/m 2.4 km/h (1 Bft) O 0.00 h 0 W/m -3.4 C -3.6 C
14.01.2005 06:00 -3.4 C 98 % 1033.4 hPa 0.0 l/m 2.2 km/h (1 Bft) O 0.00 h 0 W/m -3.7 C -3.8 C
14.01.2005 07:00 -3.9 C 98 % 1033.7 hPa 0.0 l/m 0.4 km/h (0 Bft) O 0.00 h 0 W/m -4.2 C -3.9 C
14.01.2005 08:00 -3.2 C 98 % 1033.6 hPa 0.0 l/m 0.0 km/h (0 Bft) N 0.00 h 20 W/m -3.5 C -3.2 C
14.01.2005 09:00 -2.1 C 100 % 1033.7 hPa 0.0 l/m 0.0 km/h (0 Bft) N 0.00 h 66 W/m -2.1 C -2.1 C
14.01.2005 10:00 -1.4 C 100 % 1033.6 hPa 0.0 l/m 1.0 km/h (0 Bft) O-SO 0.00 h 116 W/m -1.4 C -1.5 C
14.01.2005 11:00 -0.9 C 100 % 1033.3 hPa 0.0 l/m 4.5 km/h (1 Bft) O-SO 0.00 h 144 W/m -0.9 C -2.4 C
14.01.2005 12:00 0.3 C 99 % 1032.9 hPa 0.0 l/m 3.4 km/h (1 Bft) O-SO 0.07 h 176 W/m 0.2 C -0.6 C
14.01.2005 13:00 1.7 C 95 % 1031.9 hPa 0.0 l/m 0.3 km/h (0 Bft) O-SO 0.33 h 202 W/m 1.0 C 1.7 C
14.01.2005 14:00 1.5 C 90 % 1031.9 hPa 0.0 l/m 0.3 km/h (0 Bft) SO 0.83 h 255 W/m 0.1 C 1.5 C
14.01.2005 15:00 1.1 C 91 % 1031.9 hPa 0.0 l/m 0.2 km/h (0 Bft) N 1.00 h 229 W/m -0.2 C 1.1 C
14.01.2005 16:00 0.1 C 91 % 1031.6 hPa 0.0 l/m 0.1 km/h (0 Bft) N 0.80 h 73 W/m -1.2 C 0.1 C
14.01.2005 17:00 -2.4 C 92 % 1032.2 hPa 0.0 l/m 1.6 km/h (1 Bft) SO 0.00 h 0 W/m -3.5 C -2.8 C
14.01.2005 18:00 -3.3 C 94 % 1032.2 hPa 0.0 l/m 0.0 km/h (0 Bft) N 0.00 h 0 W/m -4.1 C -3.3 C
14.01.2005 19:00 -3.9 C 94 % 1032.3 hPa 0.0 l/m 0.0 km/h (0 Bft) N 0.00 h 0 W/m -4.7 C -3.9 C
14.01.2005 20:00 -4.2 C 94 % 1032.0 hPa 0.0 l/m 0.3 km/h (0 Bft) O-SO 0.00 h 0 W/m -5.1 C -4.3 C
14.01.2005 21:00 -5.1 C 92 % 1032.1 hPa 0.0 l/m 0.0 km/h (0 Bft) N 0.00 h 0 W/m -6.2 C -5.1 C
14.01.2005 22:00 -5.6 C 90 % 1031.9 hPa 0.0 l/m 0.2 km/h (0 Bft) O-SO 0.00 h 0 W/m -7.0 C -5.6 C
14.01.2005 23:00 -6.0 C 90 % 1032.0 hPa 0.0 l/m 0.1 km/h (0 Bft) SO 0.00 h 0 W/m -7.4 C -6.0 C
15.01.2005 00:00 -4.8 C 93 % 1031.8 hPa 0.0 l/m 0.1 km/h (0 Bft) SO 0.00 h 0 W/m -5.8 C -4.8 C
15.01.2005 01:00 -3.9 C 96 % 1031.7 hPa 0.0 l/m 0.0 km/h (0 Bft) N 0.00 h 0 W/m -4.5 C -3.9 C
15.01.2005 02:00 -3.7 C 97 % 1031.6 hPa 0.0 l/m 0.4 km/h (0 Bft) O-SO 0.00 h 0 W/m -4.1 C -3.7 C
15.01.2005 03:00 -4.2 C 97 % 1031.7 hPa 0.0 l/m 2.0 km/h (1 Bft) O-SO 0.00 h 0 W/m -4.6 C -4.6 C
15.01.2005 04:00 -4.8 C 97 % 1031.8 hPa 0.0 l/m 5.0 km/h (1 Bft) O-SO 0.00 h 0 W/m -5.3 C -6.7 C
15.01.2005 05:00 -5.3 C 96 % 1031.5 hPa 0.0 l/m 5.3 km/h (1 Bft) O-SO 0.00 h 0 W/m -5.9 C -7.4 C
15.01.2005 06:00 -5.4 C 96 % 1031.3 hPa 0.0 l/m 5.3 km/h (1 Bft) O-SO 0.00 h 0 W/m -6.0 C -7.8 C
15.01.2005 07:00 -5.2 C 96 % 1031.8 hPa 0.0 l/m 5.2 km/h (1 Bft) O-SO 0.00 h 0 W/m -5.7 C -7.0 C
15.01.2005 08:00 -5.5 C 95 % 1031.9 hPa 0.0 l/m 6.0 km/h (2 Bft) O-SO 0.00 h 16 W/m -6.2 C -8.1 C
15.01.2005 09:00 -4.9 C 94 % 1032.5 hPa 0.0 l/m 6.2 km/h (2 Bft) O-SO 0.17 h 84 W/m -5.6 C -7.3 C
15.01.2005 10:00 -3.6 C 93 % 1032.7 hPa 0.0 l/m 0.2 km/h (0 Bft) O-SO 0.03 h 135 W/m -4.5 C -3.6 C
15.01.2005 11:00 -1.7 C 94 % 1031.5 hPa 0.0 l/m 0.0 km/h (0 Bft) N 0.07 h 168 W/m -2.6 C -1.7 C
15.01.2005 12:00 -0.9 C 91 % 1031.0 hPa 0.0 l/m 2.5 km/h (1 Bft) O-SO 0.03 h 197 W/m -2.3 C -1.7 C
15.01.2005 13:00 -0.2 C 88 % 1030.1 hPa 0.0 l/m 1.6 km/h (1 Bft) O 0.00 h 155 W/m -2.0 C -0.7 C
15.01.2005 14:00 -0.7 C 82 % 1030.1 hPa 0.0 l/m 1.4 km/h (1 Bft) W 0.00 h 117 W/m -3.4 C -1.0 C
15.01.2005 15:00 -1.1 C 83 % 1030.2 hPa 0.0 l/m 0.3 km/h (0 Bft) W 0.00 h 80 W/m -3.7 C -1.1 C
15.01.2005 16:00 -2.6 C 86 % 1030.4 hPa 0.0 l/m 0.1 km/h (0 Bft) O-SO 0.07 h 33 W/m -4.7 C -2.6 C
15.01.2005 17:00 -3.8 C 90 % 1030.6 hPa 0.0 l/m 0.0 km/h (0 Bft) N 0.00 h 0 W/m -5.2 C -3.8 C
15.01.2005 18:00 -4.1 C 93 % 1030.7 hPa 0.0 l/m 2.5 km/h (1 Bft) O-SO 0.00 h 0 W/m -5.1 C -4.5 C
15.01.2005 19:00 -4.4 C 94 % 1030.7 hPa 0.0 l/m 5.5 km/h (1 Bft) O-SO 0.00 h 0 W/m -5.2 C -6.6 C
15.01.2005 20:00 -5.0 C 93 % 1030.8 hPa 0.0 l/m 6.4 km/h (2 Bft) O-SO 0.00 h 0 W/m -5.9 C -7.7 C
15.01.2005 21:00 -5.3 C 92 % 1030.8 hPa 0.0 l/m 7.1 km/h (2 Bft) O-SO 0.00 h 0 W/m -6.4 C -8.3 C
15.01.2005 22:00 -5.1 C 92 % 1030.8 hPa 0.0 l/m 8.3 km/h (2 Bft) O-SO 0.00 h 0 W/m -6.2 C -8.9 C
15.01.2005 23:00 -5.0 C 93 % 1030.8 hPa 0.0 l/m 10.7 km/h (2 Bft) O-SO 0.00 h 0 W/m -6.0 C -9.5 C
16.01.2005 00:00 -4.6 C 94 % 1030.7 hPa 0.0 l/m 11.9 km/h (2 Bft) O-SO 0.00 h 0 W/m -5.4 C -9.3 C
16.01.2005 01:00 -4.0 C 95 % 1030.6 hPa 0.0 l/m 12.5 km/h (3 Bft) O-SO 0.00 h 0 W/m -4.7 C -8.7 C
16.01.2005 02:00 -3.6 C 95 % 1030.6 hPa 0.0 l/m 3.2 km/h (1 Bft) O-SO 0.00 h 0 W/m -4.3 C -4.7 C
16.01.2005 03:00 -3.4 C 96 % 1030.5 hPa 0.0 l/m 4.1 km/h (1 Bft) O-SO 0.00 h 0 W/m -3.9 C -5.0 C
16.01.2005 04:00 -3.3 C 96 % 1030.5 hPa 0.0 l/m 2.9 km/h (1 Bft) O-SO 0.00 h 0 W/m -3.8 C -4.2 C
16.01.2005 05:00 -3.3 C 95 % 1030.5 hPa 0.0 l/m 5.0 km/h (1 Bft) O-SO 0.00 h 0 W/m -3.9 C -5.1 C
16.01.2005 06:00 -3.3 C 95 % 1030.5 hPa 0.0 l/m 1.8 km/h (1 Bft) O-SO 0.00 h 0 W/m -4.0 C -3.8 C
16.01.2005 07:00 -3.2 C 94 % 1030.5 hPa 0.0 l/m 1.4 km/h (1 Bft) O-SO 0.00 h 0 W/m -4.0 C -3.7 C
16.01.2005 08:00 -3.1 C 93 % 1030.5 hPa 0.0 l/m 2.2 km/h (1 Bft) SO 0.00 h 8 W/m -4.2 C -4.0 C
16.01.2005 09:00 -3.0 C 85 % 1031.5 hPa 0.0 l/m 0.5 km/h (0 Bft) SO 0.00 h 31 W/m -5.1 C -3.0 C
16.01.2005 10:00 -2.7 C 84 % 1031.5 hPa 0.0 l/m 2.0 km/h (1 Bft) O-SO 0.00 h 65 W/m -5.0 C -3.2 C
16.01.2005 11:00 -2.2 C 82 % 1031.4 hPa 0.0 l/m 2.8 km/h (1 Bft) O-SO 0.00 h 97 W/m -4.9 C -3.0 C
16.01.2005 12:00 -1.5 C 80 % 1031.2 hPa 0.0 l/m 1.0 km/h (0 Bft) O-SO 0.00 h 113 W/m -4.6 C -1.6 C
16.01.2005 13:00 -0.8 C 79 % 1030.1 hPa 0.0 l/m 0.6 km/h (0 Bft) SO 0.00 h 111 W/m -4.0 C -0.9 C
16.01.2005 14:00 -0.4 C 77 % 1030.1 hPa 0.0 l/m 0.3 km/h (0 Bft) O-SO 0.00 h 145 W/m -4.0 C -0.4 C
16.01.2005 15:00 -0.5 C 75 % 1030.1 hPa 0.0 l/m 0.0 km/h (0 Bft) N 0.62 h 137 W/m -4.4 C -0.5 C
16.01.2005 16:00 -1.9 C 81 % 1030.3 hPa 0.0 l/m 0.0 km/h (0 Bft) N 0.22 h 42 W/m -4.8 C -1.9 C
16.01.2005 17:00 -3.1 C 87 % 1030.5 hPa 0.0 l/m 0.5 km/h (0 Bft) O-SO 0.00 h 0 W/m -5.0 C -3.3 C
16.01.2005 18:00 -2.5 C 91 % 1030.4 hPa 0.0 l/m 0.4 km/h (0 Bft) O-SO 0.00 h 0 W/m -3.7 C -2.5 C
16.01.2005 19:00 -2.1 C 89 % 1030.4 hPa 0.0 l/m 0.5 km/h (0 Bft) O-SO 0.00 h 0 W/m -3.6 C -2.1 C
16.01.2005 20:00 -2.1 C 87 % 1031.1 hPa 0.0 l/m 0.5 km/h (0 Bft) O-SO 0.00 h 0 W/m -4.0 C -2.1 C
16.01.2005 21:00 -2.3 C 86 % 1031.4 hPa 0.0 l/m 0.5 km/h (0 Bft) SO 0.00 h 0 W/m -4.3 C -2.3 C
16.01.2005 22:00 -2.5 C 87 % 1030.5 hPa 0.0 l/m 0.8 km/h (0 Bft) O-SO 0.00 h 0 W/m -4.4 C -2.7 C
16.01.2005 23:00 -2.6 C 87 % 1030.4 hPa 0.0 l/m 5.5 km/h (1 Bft) O-SO 0.00 h 0 W/m -4.5 C -4.5 C
Min-Datum _ 14.01.05 12.01.05 12.01.05 - 10.01.05 - - - 14.01.05 16.01.05
_ Min-Zeit 23:25 13:51 15:23 - 00:01 - - - 23:25 00:10
Minimum _ -6.3 C 54 % 1025.9 hPa - 0.0 km/h (0 Bft) - - - -7.8 C -10.6 C
Max-Datum _ 12.01.05 10.01.05 14.01.05 12.01.05 13.01.05 - 11.01.05 12.01.05 13.01.05 12.01.05
_ Max-Zeit 13:47 01:53 09:09 22:13 11:19 - 09:02 13:41 03:17 13:47
Maximum _ 8.7 C 100 % 1034.5 hPa 1.2 l/m 30.8 km/h
W-NW (5 Bft)
- 0.05 h 528 W/m 5.4 C 8.7 C
Durchschnitt _ 0.0 C 90 % 1030.9 hPa #2.4 l/m 2.7 km/h (1 Bft) O-SO #24:01 h 151 W/m -1.5 C -0.7 C

Durchschnitt Minimum Temp.-0.4 C
Durchschnitt Maximum Temp.0.5 C
© Kaiko 2005